Time;durP1;ratioP1;P1;durP2;ratioP2;P2;SDS_P1;SDS_P2;PMS_P1;PMS_P2;Temp;Humidity;BMP_temperature;BMP_pressure;BME280_temperature;BME280_humidity;BME280_pressure;Samples;Min_cycle;Max_cycle;Signal;HPM_P1;HPM_P2
2022/06/29 00:01:04;;;;;;;5.85;2.35;;;;;;;19.36;61.46;101521.41;5010945;28;20041;-49
2022/06/29 00:03:52;;;;;;;8.82;2.92;;;;;;;19.34;61.43;101510.69;5012989;28;20050;-50
2022/06/29 00:06:39;;;;;;;5.65;2.45;;;;;;;19.34;61.51;101509.88;4999450;28;20072;-50
2022/06/29 00:09:27;;;;;;;5.20;2.22;;;;;;;19.35;61.51;101503.22;5008747;28;20045;-48
2022/06/29 00:12:07;;;;;;;7.53;2.50;;;;;;;19.35;61.50;101511.50;4994559;28;20045;-49
2022/06/29 00:14:55;;;;;;;9.82;2.83;;;;;;;19.22;61.85;101512.34;5013360;28;20038;-47
2022/06/29 00:17:43;;;;;;;6.38;2.85;;;;;;;19.12;62.17;101505.94;5012900;28;20056;-48
2022/06/29 00:20:30;;;;;;;6.35;2.95;;;;;;;19.07;62.56;101500.53;5009508;28;20385;-49
2022/06/29 00:23:18;;;;;;;4.57;2.40;;;;;;;19.07;62.67;101502.44;5004840;28;20049;-48
2022/06/29 00:26:06;;;;;;;8.50;2.95;;;;;;;19.11;62.56;101507.03;5013030;28;20042;-50
2022/06/29 00:28:53;;;;;;;7.15;2.80;;;;;;;19.12;62.67;101508.69;5011898;28;20048;-50
2022/06/29 00:31:41;;;;;;;7.25;2.90;;;;;;;19.12;62.79;101500.41;4986537;28;20518;-49
2022/06/29 00:34:30;;;;;;;3.78;2.40;;;;;;;19.11;62.58;101498.75;5012675;28;20116;-47
2022/06/29 00:37:17;;;;;;;10.70;3.20;;;;;;;19.07;62.64;101495.00;5004871;28;20515;-51
2022/06/29 00:40:06;;;;;;;7.18;3.08;;;;;;;18.99;62.96;101489.38;5011620;28;20049;-49
2022/06/29 00:42:53;;;;;;;6.78;3.17;;;;;;;19.00;63.14;101488.22;5011541;28;20057;-49
2022/06/29 00:45:41;;;;;;;6.00;2.90;;;;;;;19.00;62.64;101486.31;4998018;28;20046;-53
2022/06/29 00:48:28;;;;;;;7.78;3.10;;;;;;;19.00;63.21;101485.47;5011791;28;20042;-50
2022/06/29 00:51:17;;;;;;;9.57;3.60;;;;;;;18.94;63.07;101488.34;5016550;28;20045;-49
2022/06/29 00:54:05;;;;;;;6.18;3.08;;;;;;;18.88;63.29;101483.22;5015719;28;20492;-50
2022/06/29 00:56:52;;;;;;;5.72;2.97;;;;;;;18.84;63.60;101487.75;5016014;28;20038;-50
2022/06/29 00:59:48;;;;;;;6.47;3.03;;;;;;;18.80;63.74;101478.44;5014132;28;20042;-49
2022/06/29 01:02:36;;;;;;;;;;;;;;;18.81;64.20;101466.25;5002929;28;20046;-49
2022/06/29 01:05:23;;;;;;;5.60;2.80;;;;;;;18.86;63.83;101474.47;5015111;28;19921;-49
2022/06/29 01:08:12;;;;;;;6.38;3.08;;;;;;;18.83;63.71;101469.53;5014511;28;20077;-48
2022/06/29 01:11:00;;;;;;;8.30;3.25;;;;;;;18.74;63.97;101472.19;5015599;28;20516;-52
2022/06/29 01:13:48;;;;;;;6.18;3.15;;;;;;;18.72;63.91;101458.69;5012942;28;20046;-47
2022/06/29 01:16:36;;;;;;;8.10;3.80;;;;;;;18.69;64.22;101458.50;5015948;28;20388;-50
2022/06/29 01:19:24;;;;;;;6.38;2.85;;;;;;;18.70;64.13;101460.94;5014997;28;20133;-51
2022/06/29 01:22:14;;;;;;;7.05;2.60;;;;;;;18.73;64.07;101468.59;5001020;28;20064;-53
2022/06/29 01:25:02;;;;;;;5.28;2.67;;;;;;;18.76;63.79;101469.97;5013093;28;20057;-50
2022/06/29 01:27:49;;;;;;;6.25;2.88;;;;;;;18.79;63.48;101471.28;5007582;28;20049;-53
2022/06/29 01:30:37;;;;;;;7.30;2.80;;;;;;;18.72;63.61;101458.69;5015869;28;20512;-52
2022/06/29 01:33:25;;;;;;;6.90;3.08;;;;;;;18.72;63.67;101458.69;5001126;28;20049;-50
2022/06/29 01:36:14;;;;;;;7.82;2.88;;;;;;;18.70;63.57;101460.13;5022247;28;20488;-51
2022/06/29 01:39:02;;;;;;;5.43;2.80;;;;;;;18.65;64.08;101455.50;5014724;28;20050;-51
2022/06/29 01:41:50;;;;;;;7.53;3.00;;;;;;;18.67;64.12;101453.25;5015172;28;20053;-54
2022/06/29 01:44:37;;;;;;;5.95;3.05;;;;;;;18.63;63.79;101443.97;5016926;28;20061;-53
2022/06/29 01:47:25;;;;;;;5.65;2.90;;;;;;;18.59;64.02;101448.47;5014395;28;20042;-51
2022/06/29 01:50:12;;;;;;;7.65;3.50;;;;;;;18.52;64.51;101448.06;5015300;28;20042;-49
2022/06/29 01:53:00;;;;;;;7.53;2.92;;;;;;;18.47;64.54;101443.47;5015248;28;20489;-50
2022/06/29 01:55:48;;;;;;;6.55;3.20;;;;;;;18.46;64.44;101449.28;5013764;28;20046;-50
2022/06/29 01:58:35;;;;;;;4.10;2.75;;;;;;;18.47;64.68;101445.38;5015112;28;20041;-48
2022/06/29 02:01:23;;;;;;;5.68;3.00;;;;;;;18.45;64.66;101439.38;5015112;28;20049;-49
2022/06/29 02:04:11;;;;;;;7.43;3.38;;;;;;;18.42;64.57;101437.22;5013444;28;20045;-49
2022/06/29 02:06:58;;;;;;;6.43;3.40;;;;;;;18.37;64.86;101432.59;5008137;28;20117;-51
2022/06/29 02:09:46;;;;;;;5.75;3.15;;;;;;;18.34;65.25;101426.91;5015247;28;20496;-49
2022/06/29 02:12:35;;;;;;;5.80;2.50;;;;;;;18.35;65.21;101431.28;5013323;28;20078;-48
2022/06/29 02:15:26;;;;;;;6.43;3.03;;;;;;;18.35;65.14;101428.50;5008436;28;20460;-46
2022/06/29 02:18:13;;;;;;;4.35;2.72;;;;;;;18.36;65.29;101432.94;5012895;28;20049;-49
2022/06/29 02:21:01;;;;;;;5.82;2.88;;;;;;;18.38;64.92;101438.97;5015108;28;20042;-49
2022/06/29 02:23:49;;;;;;;5.60;3.15;;;;;;;18.38;64.93;101430.69;5014738;28;20042;-52
2022/06/29 02:26:36;;;;;;;8.43;3.00;;;;;;;18.29;65.19;101428.63;5005938;28;20511;-53
2022/06/29 02:29:24;;;;;;;6.55;3.20;;;;;;;18.26;65.34;101426.47;5014159;28;20060;-52
2022/06/29 02:35:18;;;;;;;4.93;2.92;;;;;;;18.22;65.52;101417.16;5013818;28;20046;-50
2022/06/29 02:38:05;;;;;;;8.07;3.15;;;;;;;18.20;65.70;101416.66;5001168;28;20081;-54
2022/06/29 02:40:53;;;;;;;6.72;3.03;;;;;;;18.22;65.64;101419.94;5014424;28;20050;-52
2022/06/29 02:43:40;;;;;;;7.85;2.95;;;;;;;18.24;65.50;101420.44;5000005;28;20124;-51
2022/06/29 02:46:28;;;;;;;5.72;3.40;;;;;;;18.23;65.69;101416.06;5006093;28;20046;-51
2022/06/29 02:49:16;;;;;;;6.53;2.83;;;;;;;18.25;65.70;101418.50;4990018;28;20054;-48
2022/06/29 02:52:04;;;;;;;5.57;2.63;;;;;;;18.31;65.65;101423.63;5013903;28;20046;-49
2022/06/29 02:54:51;;;;;;;5.53;3.13;;;;;;;18.28;65.39;101421.47;5010443;28;20408;-53
2022/06/29 02:57:39;;;;;;;4.95;2.80;;;;;;;18.26;65.74;101420.97;5013114;28;20041;-49
2022/06/29 03:00:27;;;;;;;8.90;3.10;;;;;;;18.30;65.60;101416.47;5003301;28;20054;-50
2022/06/29 03:03:14;;;;;;;5.30;2.88;;;;;;;18.28;65.54;101410.44;5013121;28;20046;-51
2022/06/29 03:06:02;;;;;;;7.55;2.90;;;;;;;18.28;65.56;101409.63;5013568;28;20049;-53
2022/06/29 03:08:50;;;;;;;7.25;3.15;;;;;;;18.28;65.54;101402.16;5002152;28;20071;-54
2022/06/29 03:11:37;;;;;;;4.70;2.60;;;;;;;18.29;65.63;101414.00;5011099;28;20046;-50
2022/06/29 03:14:25;;;;;;;6.68;3.03;;;;;;;18.29;65.70;101405.75;4998779;28;20096;-49
2022/06/29 03:17:12;;;;;;;8.27;3.28;;;;;;;18.28;65.54;101410.44;5012411;28;20050;-51
2022/06/29 03:20:03;;;;;;;7.22;2.83;;;;;;;18.23;65.61;101413.31;5012806;28;20041;-53
2022/06/29 03:22:50;;;;;;;6.35;3.10;;;;;;;18.16;66.23;101401.00;5013733;28;20511;-50
2022/06/29 03:25:38;;;;;;;6.38;3.15;;;;;;;18.15;66.28;101394.69;5013568;28;20053;-52
2022/06/29 03:28:25;;;;;;;6.20;2.88;;;;;;;18.19;66.10;101394.91;5012286;28;20057;-53
2022/06/29 03:31:13;;;;;;;8.30;3.03;;;;;;;18.17;66.27;101392.44;5013277;28;20049;-50
2022/06/29 03:34:01;;;;;;;5.20;3.15;;;;;;;18.20;66.12;101383.56;4998199;28;20137;-51
2022/06/29 03:36:48;;;;;;;6.30;2.97;;;;;;;18.20;66.01;101385.50;5006748;28;20503;-50
2022/06/29 03:39:36;;;;;;;5.35;2.95;;;;;;;18.15;66.19;101380.91;5012689;28;20038;-50
2022/06/29 03:42:23;;;;;;;6.03;2.75;;;;;;;18.14;66.10;101386.75;5012324;28;20061;-50
2022/06/29 03:45:11;;;;;;;7.10;3.00;;;;;;;18.10;66.38;101381.00;5013169;28;20057;-53
2022/06/29 03:47:59;;;;;;;5.15;2.70;;;;;;;18.09;66.50;101376.63;4999862;28;20053;-52
2022/06/29 03:50:47;;;;;;;7.85;2.75;;;;;;;18.09;66.51;101377.44;5009803;28;20504;-53
2022/06/29 03:53:34;;;;;;;9.10;3.20;;;;;;;18.06;66.44;101375.28;5013312;28;20046;-50
2022/06/29 03:56:22;;;;;;;9.10;3.33;;;;;;;18.04;66.94;101373.97;4998275;28;20051;-53
2022/06/29 03:59:09;;;;;;;7.32;2.97;;;;;;;18.00;66.93;101370.16;5012129;28;20041;-51
2022/06/29 04:01:57;;;;;;;6.70;3.00;;;;;;;17.92;67.17;101368.09;5011056;28;20049;-53
2022/06/29 04:04:45;;;;;;;6.97;3.03;;;;;;;17.88;67.79;101367.91;5011642;28;20078;-52
2022/06/29 04:07:33;;;;;;;9.30;3.63;;;;;;;17.86;67.70;101365.44;5003102;28;20420;-52
2022/06/29 04:10:20;;;;;;;6.53;3.10;;;;;;;17.82;68.04;101369.94;5011714;28;20049;-51
2022/06/29 04:13:08;;;;;;;9.38;2.95;;;;;;;17.77;68.41;101367.22;5011615;28;20046;-52
2022/06/29 04:15:55;;;;;;;9.75;3.67;;;;;;;17.76;68.53;101364.78;5011539;28;20415;-54
2022/06/29 04:18:43;;;;;;;7.95;3.33;;;;;;;17.76;68.80;101365.59;5005551;28;20125;-52
2022/06/29 04:21:31;;;;;;;8.35;3.38;;;;;;;17.76;68.93;101365.59;5002133;28;20039;-51
2022/06/29 04:24:19;;;;;;;9.32;3.58;;;;;;;17.74;69.17;101370.59;5002212;28;20381;-51
2022/06/29 04:27:06;;;;;;;12.27;4.25;;;;;;;17.79;69.41;101364.19;5016210;28;20412;-51
2022/06/29 04:29:54;;;;;;;6.10;3.30;;;;;;;17.83;69.06;101370.75;5016098;28;20046;-49
2022/06/29 04:32:41;;;;;;;7.78;3.10;;;;;;;17.86;68.97;101365.44;5016307;28;20493;-51
2022/06/29 04:35:29;;;;;;;11.25;3.58;;;;;;;17.87;68.84;101364.34;5016338;28;20096;-54
2022/06/29 04:38:17;;;;;;;8.48;3.22;;;;;;;17.90;68.78;101359.34;5000573;28;20516;-53
2022/06/29 04:41:05;;;;;;;8.77;4.03;;;;;;;17.95;68.75;101356.50;5003097;28;20038;-49
2022/06/29 04:43:52;;;;;;;7.68;3.67;;;;;;;17.99;68.83;101351.97;5001091;28;20049;-49
2022/06/29 04:46:40;;;;;;;8.20;3.88;;;;;;;18.00;68.56;101359.97;5016095;28;20053;-49
2022/06/29 04:49:28;;;;;;;10.88;3.70;;;;;;;18.01;68.62;101356.06;5015324;28;20567;-48
2022/06/29 04:52:15;;;;;;;8.10;3.67;;;;;;;18.02;68.55;101357.72;5015396;28;20042;-49
2022/06/29 04:55:04;;;;;;;7.40;3.35;;;;;;;18.05;68.61;101348.00;5013379;28;20050;-49
2022/06/29 04:57:52;;;;;;;8.48;3.85;;;;;;;18.04;68.93;101360.19;5013416;28;20042;-54
2022/06/29 05:00:39;;;;;;;6.57;3.47;;;;;;;18.05;68.51;101359.84;5013906;28;20054;-49
2022/06/29 05:03:27;;;;;;;7.22;3.72;;;;;;;18.11;68.83;101349.53;5012264;28;20049;-51
2022/06/29 05:09:45;;;;;;;11.55;4.25;;;;;;;18.20;68.58;101353.22;4913761;27;20500;-51
2022/06/29 05:12:33;;;;;;;10.45;3.97;;;;;;;18.20;68.78;101346.88;4928772;29;20055;-49
2022/06/29 05:15:27;;;;;;;6.65;3.60;;;;;;;18.20;68.64;101344.13;4951886;28;20586;-52
2022/06/29 05:18:14;;;;;;;8.68;3.78;;;;;;;18.23;68.96;101352.63;4939933;29;20035;-52
2022/06/29 05:21:13;;;;;;;12.25;4.40;;;;;;;18.31;69.29;101351.09;4948822;28;20114;-48
2022/06/29 05:24:01;;;;;;;9.52;3.60;;;;;;;18.31;69.75;101349.13;4936257;29;20051;-48
2022/06/29 05:26:53;;;;;;;10.90;3.67;;;;;;;18.32;69.49;101349.94;4935574;29;20043;-52
2022/06/29 05:29:41;;;;;;;6.57;3.28;;;;;;;18.38;69.76;101347.91;4936629;29;20431;-51
2022/06/29 05:32:29;;;;;;;6.20;3.40;;;;;;;18.42;69.45;101346.16;4259844;29;10000780;-50
2022/06/29 05:35:16;;;;;;;9.48;3.95;;;;;;;18.47;68.86;101346.03;4928447;29;20514;-48
2022/06/29 05:38:04;;;;;;;11.00;4.47;;;;;;;18.51;69.06;101342.34;4930261;29;20125;-50
2022/06/29 05:40:51;;;;;;;7.18;3.75;;;;;;;18.55;69.06;101345.34;4935490;29;20491;-49
2022/06/29 05:43:39;;;;;;;7.10;3.60;;;;;;;18.58;69.01;101346.66;4931839;29;20054;-50
2022/06/29 05:46:27;;;;;;;7.60;3.60;;;;;;;18.61;69.00;101346.03;4933251;29;20482;-49
2022/06/29 05:49:14;;;;;;;7.75;3.50;;;;;;;18.63;69.25;101336.31;4932849;29;20047;-48
2022/06/29 05:51:43;;;;;;;8.85;4.18;;;;;;;18.61;69.38;101338.56;4918078;29;20071;-51
2022/06/29 05:54:31;;;;;;;9.05;4.20;;;;;;;18.61;69.51;101337.75;4935728;29;20130;-50
2022/06/29 05:57:19;;;;;;;15.15;4.40;;;;;;;18.64;70.26;101337.13;4924344;29;20074;-51
2022/06/29 06:00:08;;;;;;;10.70;4.90;;;;;;;18.68;70.14;101336.19;4935516;29;20050;-53
2022/06/29 06:02:58;;;;;;;7.20;3.75;;;;;;;18.71;70.05;101341.13;4933873;29;20059;-49
2022/06/29 06:05:46;;;;;;;8.85;4.40;;;;;;;18.73;69.73;101338.84;4921371;29;20047;-51
2022/06/29 06:08:33;;;;;;;7.32;3.45;;;;;;;18.74;69.60;101340.47;4934419;29;20064;-51
2022/06/29 06:11:21;;;;;;;8.07;4.43;;;;;;;18.79;69.61;101347.88;4949497;28;20056;-52
2022/06/29 06:14:09;;;;;;;8.10;4.68;;;;;;;18.80;69.92;101343.97;4935246;29;20059;-53
2022/06/29 06:16:56;;;;;;;9.40;4.13;;;;;;;18.83;70.32;101345.28;4933841;29;20051;-51
2022/06/29 06:19:44;;;;;;;8.70;4.95;;;;;;;18.88;70.04;101350.69;4948586;28;20039;-51
2022/06/29 06:22:32;;;;;;;9.15;4.63;;;;;;;18.91;69.61;101337.09;4948904;28;20426;-49
2022/06/29 06:25:19;;;;;;;9.73;5.50;;;;;;;18.97;69.62;101340.53;4947308;29;20054;-51
2022/06/29 06:28:07;;;;;;;13.00;5.20;;;;;;;18.97;69.88;101348.00;4937856;29;20046;-52
2022/06/29 06:30:55;;;;;;;10.82;3.80;;;;;;;19.00;69.56;101339.94;4943150;29;20052;-51
2022/06/29 06:33:42;;;;;;;9.65;3.78;;;;;;;19.04;69.17;101338.16;4937995;29;20054;-50
2022/06/29 06:36:30;;;;;;;11.40;5.15;;;;;;;19.08;68.94;101336.41;4936593;29;20502;-52
2022/06/29 06:39:18;;;;;;;10.65;3.97;;;;;;;19.15;68.64;101338.75;4937893;29;20044;-50
2022/06/29 06:42:05;;;;;;;19.48;6.10;;;;;;;19.16;68.80;101332.88;4926432;29;20521;-49
2022/06/29 06:44:53;;;;;;;10.13;4.88;;;;;;;19.19;68.94;101333.41;4950224;28;20044;-48
2022/06/29 06:47:40;;;;;;;11.20;5.32;;;;;;;19.21;69.92;101333.91;4934949;29;20069;-50
2022/06/29 06:50:28;;;;;;;11.95;5.50;;;;;;;19.25;69.71;101329.41;4925831;29;20048;-51
2022/06/29 06:53:15;;;;;;;11.13;5.72;;;;;;;19.30;69.69;101332.03;4931720;29;20055;-49
2022/06/29 06:56:04;;;;;;;11.98;6.10;;;;;;;19.32;69.65;101332.53;4919801;29;20499;-49
2022/06/29 06:58:52;;;;;;;15.73;6.25;;;;;;;19.36;69.90;101327.97;4931526;29;20111;-50
2022/06/29 07:01:41;;;;;;;11.45;5.43;;;;;;;19.38;68.73;101325.72;4937141;29;20047;-51
2022/06/29 07:04:35;;;;;;;16.08;6.25;;;;;;;19.41;68.44;101319.59;4907000;29;20050;-49
2022/06/29 07:07:23;;;;;;;17.65;6.60;;;;;;;19.49;68.06;101324.34;4934280;29;20579;-50
2022/06/29 07:10:11;;;;;;;13.60;6.30;;;;;;;19.56;67.76;101321.94;4930810;29;20484;-51
2022/06/29 07:12:47;;;;;;;11.40;5.40;;;;;;;19.61;67.73;101328.47;4922890;29;20074;-51
2022/06/29 07:15:42;;;;;;;13.10;6.50;;;;;;;19.65;68.34;101329.47;4938160;29;20079;-49
2022/06/29 07:18:31;;;;;;;12.00;6.22;;;;;;;19.69;68.60;101327.72;4936019;29;20052;-53
2022/06/29 07:21:18;;;;;;;11.70;5.63;;;;;;;19.74;68.22;101324.81;4935981;29;20039;-51
2022/06/29 07:24:06;;;;;;;10.98;5.93;;;;;;;19.77;67.87;101322.25;4939779;29;20425;-49
2022/06/29 07:26:56;;;;;;;10.25;6.07;;;;;;;19.86;68.29;101313.97;4925948;29;20059;-52
2022/06/29 07:29:44;;;;;;;12.82;6.30;;;;;;;19.89;68.30;101315.28;4935825;29;20054;-50
2022/06/29 07:32:32;;;;;;;16.08;6.32;;;;;;;19.93;68.16;101314.34;4937036;29;20059;-51
2022/06/29 07:35:19;;;;;;;17.50;6.25;;;;;;;19.98;67.44;101322.50;4923418;29;20048;-53
2022/06/29 07:38:09;;;;;;;11.85;6.25;;;;;;;20.03;66.79;101317.97;4915200;29;20043;-49
2022/06/29 07:40:50;;;;;;;9.45;5.65;;;;;;;20.09;66.12;101322.22;4937704;29;20075;-52
2022/06/29 07:43:37;;;;;;;12.80;5.95;;;;;;;20.16;64.69;101322.56;4939699;29;20051;-52
2022/06/29 07:46:25;;;;;;;12.07;6.00;;;;;;;20.21;63.90;101311.34;4950473;29;20062;-52
2022/06/29 07:49:13;;;;;;;9.85;5.22;;;;;;;20.28;63.31;101319.19;4935970;29;20059;-49
2022/06/29 07:52:00;;;;;;;11.20;5.57;;;;;;;20.33;61.55;101321.81;4948038;29;20438;-50
2022/06/29 07:54:48;;;;;;;11.63;5.57;;;;;;;20.36;61.57;101318.38;4949017;29;20494;-51
2022/06/29 07:57:36;;;;;;;11.77;5.97;;;;;;;20.38;61.75;101318.88;4933425;29;20054;-55
2022/06/29 08:00:26;;;;;;;11.10;6.25;;;;;;;20.41;61.94;101321.81;4919900;29;20055;-51
2022/06/29 08:03:14;;;;;;;12.00;6.30;;;;;;;20.48;61.92;101315.78;4932508;29;20054;-50
2022/06/29 08:06:07;;;;;;;9.68;5.22;;;;;;;20.54;62.29;101321.97;4913038;29;20055;-50
2022/06/29 08:08:55;;;;;;;10.85;5.70;;;;;;;20.58;62.28;101323.00;4932532;29;20058;-51
2022/06/29 08:11:43;;;;;;;11.65;5.72;;;;;;;20.63;62.48;101320.09;4933720;29;20502;-51
2022/06/29 08:14:31;;;;;;;9.05;5.07;;;;;;;20.66;62.50;101319.44;4939687;29;20063;-51
2022/06/29 08:17:18;;;;;;;11.90;5.47;;;;;;;20.68;63.13;101322.69;4937440;29;20083;-50
2022/06/29 08:20:07;;;;;;;10.38;5.90;;;;;;;20.76;62.84;101307.25;4937839;28;20095;-50
2022/06/29 08:22:55;;;;;;;9.73;5.95;;;;;;;20.86;62.58;101306.91;4912179;29;20044;-51
2022/06/29 08:25:57;;;;;;;9.73;4.85;;;;;;;20.91;62.85;101308.69;4746400;29;10001539;-49
2022/06/29 08:29:05;;;;;;;11.77;6.80;;;;;;;20.98;61.81;101309.03;4930420;29;20261;-49
2022/06/29 08:31:53;;;;;;;10.60;6.03;;;;;;;20.97;61.63;101312.91;4931121;29;20051;-49
2022/06/29 08:34:40;;;;;;;9.80;5.20;;;;;;;20.94;61.79;101303.31;4926521;29;20606;-49
2022/06/29 08:37:29;;;;;;;10.75;4.65;;;;;;;20.98;61.75;101303.50;4929342;29;20043;-48
2022/06/29 08:40:17;;;;;;;8.75;4.60;;;;;;;20.97;60.91;101307.38;4929803;29;20407;-52
2022/06/29 08:43:05;;;;;;;11.10;5.00;;;;;;;20.97;60.48;101305.44;4916937;29;20061;-49
2022/06/29 08:45:56;;;;;;;14.00;5.60;;;;;;;21.02;60.34;101305.28;4930693;29;20048;-49
2022/06/29 08:48:43;;;;;;;10.13;5.07;;;;;;;21.05;60.93;101298.25;4934005;29;20379;-51
2022/06/29 08:51:34;;;;;;;8.15;4.22;;;;;;;21.05;61.33;101304.63;4914095;29;20506;-50
2022/06/29 08:54:24;;;;;;;14.07;4.60;;;;;;;21.10;61.14;101294.50;4932842;29;20080;-52
2022/06/29 08:57:12;;;;;;;10.65;3.72;;;;;;;21.19;59.75;101298.91;4933380;29;20375;-52
2022/06/29 09:00:00;;;;;;;9.63;3.90;;;;;;;21.26;58.37;101295.59;4948088;29;20490;-51
2022/06/29 09:02:50;;;;;;;9.27;3.38;;;;;;;21.34;58.04;101300.34;4944122;29;20463;-48
2022/06/29 09:05:38;;;;;;;9.25;3.67;;;;;;;21.39;58.29;101291.03;4929496;29;20058;-53
2022/06/29 09:08:26;;;;;;;7.65;3.38;;;;;;;21.48;58.68;101300.97;4932388;29;20064;-49
2022/06/29 09:11:25;;;;;;;11.73;4.35;;;;;;;21.55;58.35;101294.94;4907632;29;20407;-48
2022/06/29 09:14:17;;;;;;;9.00;4.78;;;;;;;21.64;58.32;101292.13;4920688;29;20483;-51
2022/06/29 09:17:05;;;;;;;9.07;3.97;;;;;;;21.64;58.77;101290.16;4945891;29;20163;-50
2022/06/29 09:19:53;;;;;;;7.00;3.25;;;;;;;21.67;57.58;101291.44;4925927;29;20169;-49
2022/06/29 09:23:02;;;;;;;8.27;3.67;;;;;;;21.69;58.38;101289.16;4927275;29;20095;-50
2022/06/29 09:25:50;;;;;;;12.77;3.65;;;;;;;21.67;57.51;101286.72;4940018;29;20048;-50
2022/06/29 09:28:37;;;;;;;18.42;3.88;;;;;;;21.68;56.12;101290.31;4935784;29;20102;-50
2022/06/29 09:31:25;;;;;;;7.45;4.20;;;;;;;21.76;56.00;101289.47;4941437;29;20062;-50
2022/06/29 09:34:20;;;;;;;8.88;3.70;;;;;;;21.81;55.72;101294.00;4944977;29;20047;-50
2022/06/29 09:37:12;;;;;;;9.73;4.28;;;;;;;21.90;56.90;101295.59;4939690;29;20070;-51
2022/06/29 09:40:00;;;;;;;8.27;4.45;;;;;;;21.98;56.82;101293.91;4937963;29;20036;-51
2022/06/29 09:42:47;;;;;;;7.90;3.80;;;;;;;22.02;57.12;101288.53;4928215;29;20055;-50
2022/06/29 09:45:35;;;;;;;10.95;3.58;;;;;;;22.07;54.92;101299.44;4935403;29;20514;-49
2022/06/29 09:48:25;;;;;;;6.55;3.90;;;;;;;22.16;55.17;101291.88;4925757;29;20048;-50
2022/06/29 09:50:53;;;;;;;13.00;4.85;;;;;;;22.21;55.83;101288.94;4939029;29;20050;-49
2022/06/29 09:53:42;;;;;;;9.65;4.32;;;;;;;22.27;55.67;101286.78;4924019;29;20043;-50
2022/06/29 09:56:30;;;;;;;7.05;3.30;;;;;;;22.37;54.85;101291.97;4925157;29;20039;-49
2022/06/29 10:02:44;;;;;;;10.38;3.80;;;;;;;22.50;53.06;101287.28;4923720;29;20078;-48
2022/06/29 10:05:54;;;;;;;5.75;3.00;;;;;;;22.48;53.73;101284.84;4920358;29;20099;-50
2022/06/29 10:08:36;;;;;;;7.70;3.33;;;;;;;22.51;53.08;101275.84;4927206;29;20055;-50
2022/06/29 10:14:44;;;;;;;9.18;3.20;;;;;;;22.63;51.79;101288.16;4931484;29;20066;-48
2022/06/29 10:18:22;;;;;;;9.38;3.08;;;;;;;22.67;48.97;101280.78;4947532;29;20039;-50
2022/06/29 10:21:24;;;;;;;7.63;2.33;;;;;;;22.73;48.18;101282.22;4870352;29;20129;-51
2022/06/29 10:23:54;;;;;;;5.97;2.58;;;;;;;22.71;48.72;101273.41;4860298;29;20425;-51
2022/06/29 10:26:43;;;;;;;2.83;2.20;;;;;;;22.79;45.95;101277.25;4932476;29;20060;-53
2022/06/29 10:29:31;;;;;;;5.13;2.30;;;;;;;22.83;47.11;101276.25;4939445;29;20058;-53
2022/06/29 10:32:19;;;;;;;5.45;2.50;;;;;;;22.89;48.31;101263.75;4944811;28;20050;-53
2022/06/29 10:35:07;;;;;;;5.22;2.80;;;;;;;22.91;49.87;101269.78;4914814;29;20475;-51
2022/06/29 10:37:55;;;;;;;8.93;3.28;;;;;;;22.97;51.72;101268.44;4923064;29;20059;-49
2022/06/29 10:41:10;;;;;;;7.82;3.20;;;;;;;23.07;51.47;101263.63;4259747;29;10001549;-50
2022/06/29 10:43:57;;;;;;;6.82;2.95;;;;;;;23.08;49.93;101259.69;4923298;29;20062;-51
2022/06/29 10:46:58;;;;;;;7.40;3.33;;;;;;;23.12;50.54;101255.06;4935265;29;20058;-49
2022/06/29 10:49:45;;;;;;;7.97;2.90;;;;;;;23.12;50.55;101255.06;4934317;29;20055;-46
2022/06/29 10:52:34;;;;;;;6.25;3.33;;;;;;;23.17;50.13;101252.06;4916723;29;20051;-45
2022/06/29 10:55:24;;;;;;;9.05;3.55;;;;;;;23.21;49.51;101247.47;4907967;29;20061;-50
2022/06/29 10:58:12;;;;;;;4.95;3.33;;;;;;;23.24;49.08;101254.31;4930467;29;20052;-52
2022/06/29 11:01:00;;;;;;;9.82;3.75;;;;;;;23.15;50.62;101240.47;4945159;29;20704;-46
2022/06/29 11:03:54;;;;;;;8.40;3.13;;;;;;;23.16;50.15;101239.31;4934191;29;20052;-50
2022/06/29 11:12:55;;;;;;;8.85;3.83;;;;;;;23.54;46.70;101232.66;4934702;28;20048;-51
2022/06/29 11:15:48;;;;;;;10.02;3.50;;;;;;;23.54;47.53;101232.66;4942602;29;20056;-49
2022/06/29 11:18:36;;;;;;;14.18;3.15;;;;;;;23.54;48.18;101232.66;4930894;29;20066;-52
2022/06/29 11:21:24;;;;;;;6.93;2.72;;;;;;;23.56;46.81;101220.03;4939663;29;20585;-50
2022/06/29 11:24:11;;;;;;;9.85;2.80;;;;;;;23.60;46.72;101220.97;4932482;29;20056;-51
2022/06/29 11:26:59;;;;;;;4.03;2.08;;;;;;;23.66;45.55;101229.88;4933005;29;20055;-48
2022/06/29 11:29:47;;;;;;;8.45;3.20;;;;;;;23.71;45.02;101226.88;4935860;29;20073;-50
2022/06/29 11:32:41;;;;;;;6.57;2.60;;;;;;;23.68;45.97;101222.00;4939022;29;20052;-49
2022/06/29 11:35:28;;;;;;;5.95;2.50;;;;;;;23.80;45.69;101219.25;4936072;28;20055;-51
2022/06/29 11:38:16;;;;;;;6.32;2.65;;;;;;;23.88;44.79;101213.91;4918717;29;20044;-51
2022/06/29 11:41:25;;;;;;;4.57;2.45;;;;;;;23.88;46.78;101220.28;4944365;29;20051;-50
2022/06/29 11:44:30;;;;;;;5.55;2.55;;;;;;;23.91;44.67;101221.56;4917331;29;20060;-50
2022/06/29 11:47:19;;;;;;;4.00;2.25;;;;;;;23.89;44.68;101207.22;4932893;29;20054;-51
2022/06/29 11:49:48;;;;;;;5.22;2.30;;;;;;;23.91;44.47;101208.47;4916503;29;20058;-53
2022/06/29 11:52:37;;;;;;;6.93;2.60;;;;;;;24.00;42.84;101205.56;4933895;29;20059;-49
2022/06/29 11:55:06;;;;;;;6.55;2.55;;;;;;;23.97;43.26;101203.47;4882961;29;20570;-46
2022/06/29 11:57:58;;;;;;;7.13;2.00;;;;;;;24.02;42.19;101197.66;4932871;29;20051;-52
2022/06/29 12:00:45;;;;;;;5.40;2.45;;;;;;;23.98;43.57;101196.72;4922343;29;20062;-51
2022/06/29 12:03:33;;;;;;;4.63;2.30;;;;;;;23.92;42.31;101198.94;4933830;29;20055;-50
2022/06/29 12:06:23;;;;;;;8.85;2.40;;;;;;;23.89;46.36;101193.28;4918401;29;20051;-51
2022/06/29 12:09:11;;;;;;;4.90;2.38;;;;;;;23.84;42.80;101196.31;4920543;29;20079;-53
2022/06/29 12:11:59;;;;;;;6.20;2.40;;;;;;;23.97;41.71;101190.38;4933093;29;20055;-47
2022/06/29 12:14:47;;;;;;;7.57;2.30;;;;;;;24.06;40.81;101186.66;4932698;29;20052;-49
2022/06/29 12:17:36;;;;;;;4.78;1.80;;;;;;;24.11;40.86;101180.84;4928704;29;20051;-51
2022/06/29 12:20:24;;;;;;;8.23;2.53;;;;;;;24.16;40.49;101175.81;4934250;29;20067;-51
2022/06/29 12:23:24;;;;;;;5.15;2.03;;;;;;;24.19;40.81;101174.31;4920724;29;20055;-50
2022/06/29 12:26:12;;;;;;;5.05;2.00;;;;;;;24.30;40.92;101174.63;4931855;29;20507;-51
2022/06/29 12:29:00;;;;;;;8.98;2.08;;;;;;;24.35;40.73;101177.19;4918899;29;20047;-49
2022/06/29 12:31:48;;;;;;;5.82;2.45;;;;;;;24.33;41.77;101168.34;4923305;29;20145;-50
2022/06/29 12:34:35;;;;;;;5.20;1.90;;;;;;;24.30;43.74;101172.66;4932292;29;20056;-49
2022/06/29 12:37:23;;;;;;;7.25;2.50;;;;;;;24.34;42.17;101170.81;4918300;29;20051;-49
2022/06/29 12:40:12;;;;;;;6.15;2.42;;;;;;;24.41;41.61;101172.97;4941315;29;20138;-47
2022/06/29 12:43:00;;;;;;;3.75;2.15;;;;;;;24.56;41.89;101175.03;4932464;29;20059;-52
2022/06/29 12:45:48;;;;;;;6.63;2.08;;;;;;;24.70;39.99;101182.16;4919456;29;20059;-49
2022/06/29 12:48:35;;;;;;;7.47;2.20;;;;;;;24.75;39.87;101168.78;4936511;29;20414;-54
2022/06/29 12:51:24;;;;;;;3.75;2.00;;;;;;;24.76;39.52;101164.81;4912631;29;20135;-49
2022/06/29 12:54:11;;;;;;;5.70;2.78;;;;;;;24.76;39.93;101166.81;4935352;29;20112;-50
2022/06/29 12:56:59;;;;;;;9.95;2.78;;;;;;;24.78;39.91;101170.06;4913075;29;20499;-46
2022/06/29 12:59:47;;;;;;;3.88;2.20;;;;;;;24.78;40.12;101167.28;4936662;29;20062;-49
2022/06/29 13:02:35;;;;;;;4.75;2.42;;;;;;;24.79;40.01;101168.88;4944264;29;20071;-48
2022/06/29 13:05:13;;;;;;;6.05;2.28;;;;;;;24.80;39.48;101162.97;4903454;29;20464;-44
2022/06/29 13:08:01;;;;;;;7.00;2.30;;;;;;;24.81;40.16;101167.34;4934781;29;20142;-48
2022/06/29 13:10:49;;;;;;;6.53;2.45;;;;;;;24.87;39.94;101167.91;4912053;29;20059;-46
2022/06/29 13:13:39;;;;;;;2.65;1.83;;;;;;;24.99;39.60;101169.78;4935071;29;20048;-48
2022/06/29 13:16:27;;;;;;;4.45;2.17;;;;;;;24.99;39.51;101167.84;4933824;29;20146;-47
2022/06/29 13:19:15;;;;;;;4.45;2.42;;;;;;;25.04;39.93;101162.00;4935274;29;20118;-48
2022/06/29 13:22:03;;;;;;;4.43;2.25;;;;;;;25.06;39.81;101156.03;4926955;29;20046;-50